createdAt,value
2022-10-23T00:02:14.461Z,4.18
2022-10-23T00:04:42.152Z,4.32
2022-10-23T00:07:09.939Z,4.15
2022-10-23T00:09:37.640Z,4.15
2022-10-23T00:12:05.532Z,3.70
2022-10-23T00:14:33.241Z,4.03
2022-10-23T00:17:02.344Z,3.75
2022-10-23T00:19:30.070Z,3.90
2022-10-23T00:21:57.874Z,3.55
2022-10-23T00:24:25.596Z,3.63
2022-10-23T00:26:53.337Z,3.90
2022-10-23T00:29:21.125Z,3.67
2022-10-23T00:31:48.871Z,3.50
2022-10-23T00:34:19.959Z,4.00
2022-10-23T00:36:47.679Z,3.92
2022-10-23T00:39:15.414Z,3.85
2022-10-23T00:41:43.592Z,4.53
2022-10-23T00:44:49.832Z,4.07
2022-10-23T00:47:18.149Z,3.83
2022-10-23T00:49:47.206Z,3.92
2022-10-23T00:52:15.228Z,3.63
2022-10-23T00:54:45.404Z,3.53
2022-10-23T00:57:15.944Z,3.30
2022-10-23T00:59:43.986Z,3.10
2022-10-23T01:02:11.852Z,3.00
2022-10-23T01:04:39.717Z,2.85
2022-10-23T01:07:14.983Z,3.22
2022-10-23T01:09:52.120Z,2.67
2022-10-23T01:12:28.031Z,3.10
2022-10-23T01:15:03.484Z,2.92
2022-10-23T01:17:40.812Z,2.67
2022-10-23T01:20:33.553Z,2.83
2022-10-23T01:23:33.661Z,2.97
2022-10-23T01:26:28.719Z,2.90
2022-10-23T01:29:04.381Z,2.75
2022-10-23T01:31:37.408Z,3.22
2022-10-23T01:34:13.484Z,2.65
2022-10-23T01:36:47.836Z,3.10
2022-10-23T01:39:20.544Z,2.97
2022-10-23T01:41:52.214Z,2.85
2022-10-23T01:44:30.518Z,2.80
2022-10-23T01:46:58.934Z,2.70
2022-10-23T01:49:30.506Z,3.00
2022-10-23T01:52:03.844Z,2.97
2022-10-23T01:54:34.862Z,2.92
2022-10-23T01:57:04.275Z,2.63
2022-10-23T01:59:39.371Z,2.83
2022-10-23T02:04:48.844Z,2.97
2022-10-23T02:07:16.768Z,2.97
2022-10-23T02:09:44.540Z,3.05
2022-10-23T02:12:19.160Z,3.03
2022-10-23T02:14:55.960Z,3.20
2022-10-23T02:17:33.222Z,2.90
2022-10-23T02:20:09.615Z,3.17
2022-10-23T02:22:42.673Z,3.13
2022-10-23T02:25:15.190Z,3.15
2022-10-23T02:27:48.646Z,2.80
2022-10-23T02:30:21.049Z,2.88
2022-10-23T02:32:57.630Z,3.15
2022-10-23T02:35:26.779Z,2.92
2022-10-23T02:38:03.805Z,2.70
2022-10-23T02:40:40.059Z,2.67
2022-10-23T02:43:15.198Z,2.70
2022-10-23T02:45:51.670Z,2.78
2022-10-23T02:48:23.832Z,2.67
2022-10-23T02:50:59.477Z,3.00
2022-10-23T02:53:33.733Z,3.00
2022-10-23T02:56:09.349Z,3.53
2022-10-23T02:58:45.848Z,3.15
2022-10-23T03:01:18.542Z,2.90
2022-10-23T03:03:52.423Z,3.13
2022-10-23T03:06:20.667Z,3.08
2022-10-23T03:08:54.652Z,2.70
2022-10-23T03:11:22.428Z,2.65
2022-10-23T03:13:50.584Z,2.78
2022-10-23T03:16:20.102Z,2.75
2022-10-23T03:18:53.088Z,3.00
2022-10-23T03:21:20.955Z,2.67
2022-10-23T03:23:52.591Z,2.72
2022-10-23T03:26:27.563Z,2.55
2022-10-23T03:28:55.354Z,2.53
2022-10-23T03:31:25.973Z,2.85
2022-10-23T03:33:57.829Z,2.55
2022-10-23T03:36:25.514Z,2.63
2022-10-23T03:38:54.376Z,2.50
2022-10-23T03:41:22.413Z,2.80
2022-10-23T03:43:50.116Z,2.20
2022-10-23T03:46:18.190Z,2.47
2022-10-23T03:48:47.269Z,2.20
2022-10-23T03:51:14.939Z,2.70
2022-10-23T03:53:42.736Z,2.15
2022-10-23T03:56:10.453Z,2.42
2022-10-23T03:58:38.409Z,2.20
2022-10-23T04:01:06.308Z,2.55
2022-10-23T04:03:34.128Z,2.70
2022-10-23T04:06:03.493Z,2.22
2022-10-23T04:08:31.260Z,2.47
2022-10-23T04:10:59.023Z,2.83
2022-10-23T04:13:42.885Z,2.92
2022-10-23T04:16:10.654Z,2.45
2022-10-23T04:18:41.089Z,2.55
2022-10-23T04:21:12.897Z,2.40
2022-10-23T04:23:40.917Z,2.33
2022-10-23T04:26:14.238Z,2.30
2022-10-23T04:28:42.282Z,2.45
2022-10-23T04:31:10.015Z,2.45
2022-10-23T04:33:41.890Z,2.20
2022-10-23T04:36:11.488Z,2.45
2022-10-23T04:38:41.061Z,2.72
2022-10-23T04:41:09.284Z,2.42
2022-10-23T04:43:37.008Z,2.80
2022-10-23T04:46:04.872Z,2.63
2022-10-23T04:48:32.689Z,2.65
2022-10-23T04:51:20.096Z,2.50
2022-10-23T04:54:09.433Z,2.50
2022-10-23T04:56:57.401Z,2.15
2022-10-23T04:59:26.127Z,2.38
2022-10-23T05:01:53.947Z,2.60
2022-10-23T05:04:24.492Z,2.40
2022-10-23T05:07:13.583Z,2.78
2022-10-23T05:09:52.686Z,2.20
2022-10-23T05:12:28.089Z,2.97
2022-10-23T05:14:56.072Z,2.63
2022-10-23T05:17:30.159Z,2.22
2022-10-23T05:20:02.564Z,2.35
2022-10-23T05:22:37.562Z,2.45
2022-10-23T05:25:08.979Z,2.40
2022-10-23T05:27:36.677Z,2.38
2022-10-23T05:30:10.513Z,2.15
2022-10-23T05:32:40.094Z,2.40
2022-10-23T05:35:10.377Z,2.40
2022-10-23T05:37:42.009Z,2.47
2022-10-23T05:40:14.827Z,2.80
2022-10-23T05:42:44.647Z,2.03
2022-10-23T05:45:16.135Z,2.38
2022-10-23T05:48:10.877Z,1.95
2022-10-23T05:51:17.876Z,2.45
2022-10-23T05:53:56.313Z,2.45
2022-10-23T05:56:35.380Z,2.40
2022-10-23T05:59:10.021Z,2.05
2022-10-23T06:01:49.952Z,2.30
2022-10-23T06:04:27.466Z,2.28
2022-10-23T06:07:13.923Z,2.58
2022-10-23T06:09:45.871Z,2.67
2022-10-23T06:12:14.163Z,2.33
2022-10-23T06:14:45.104Z,2.70
2022-10-23T06:17:13.353Z,2.45
2022-10-23T06:19:45.544Z,3.15
2022-10-23T06:22:16.226Z,2.38
2022-10-23T06:24:52.485Z,2.80
2022-10-23T06:27:26.638Z,2.83
2022-10-23T06:29:55.913Z,2.83
2022-10-23T06:32:23.876Z,2.33
2022-10-23T06:35:08.013Z,3.15
2022-10-23T06:37:36.341Z,2.45
2022-10-23T06:40:13.148Z,2.70
2022-10-23T06:42:57.056Z,2.38
2022-10-23T06:45:39.806Z,2.55
2022-10-23T06:48:13.300Z,2.22
2022-10-23T06:50:56.324Z,2.28
2022-10-23T06:53:35.655Z,2.80
2022-10-23T06:56:12.958Z,2.50
2022-10-23T06:58:41.689Z,2.15
2022-10-23T07:01:16.353Z,2.50
2022-10-23T07:03:46.028Z,2.38
2022-10-23T07:06:14.205Z,2.70
2022-10-23T07:08:42.586Z,2.20
2022-10-23T07:11:30.462Z,2.67
2022-10-23T07:13:59.579Z,2.30
2022-10-23T07:16:27.463Z,2.15
2022-10-23T07:18:59.469Z,2.40
2022-10-23T07:21:27.617Z,2.20
2022-10-23T07:24:00.197Z,2.00
2022-10-23T07:26:30.079Z,2.20
2022-10-23T07:28:58.558Z,2.30
2022-10-23T07:31:28.338Z,2.50
2022-10-23T07:34:14.659Z,2.40
2022-10-23T07:36:44.023Z,2.30
2022-10-23T07:39:11.830Z,2.30
2022-10-23T07:41:48.410Z,2.92
2022-10-23T07:44:16.482Z,3.17
2022-10-23T07:46:44.241Z,2.15
2022-10-23T07:49:12.608Z,2.03
2022-10-23T07:51:41.860Z,2.22
2022-10-23T07:54:13.034Z,2.15
2022-10-23T07:56:40.782Z,2.05
2022-10-23T07:59:19.044Z,3.15
2022-10-23T08:01:56.526Z,2.35
2022-10-23T08:04:31.090Z,2.53
2022-10-23T08:07:09.460Z,2.70
2022-10-23T08:09:42.501Z,1.95
2022-10-23T08:12:10.486Z,2.55
2022-10-23T08:14:40.120Z,2.55
2022-10-23T08:17:09.696Z,2.20
2022-10-23T08:20:03.795Z,2.03
2022-10-23T08:22:38.957Z,2.10
2022-10-23T08:25:07.352Z,2.17
2022-10-23T08:27:35.165Z,2.20
2022-10-23T08:30:04.885Z,1.92
2022-10-23T08:32:32.779Z,2.30
2022-10-23T08:35:02.318Z,2.20
2022-10-23T08:37:32.739Z,2.00
2022-10-23T08:40:00.557Z,1.98
2022-10-23T08:43:03.918Z,2.25
2022-10-23T08:45:37.241Z,2.10
2022-10-23T08:48:22.129Z,2.10
2022-10-23T08:51:24.041Z,2.10
2022-10-23T08:53:57.146Z,2.08
2022-10-23T08:56:28.719Z,2.10
2022-10-23T08:59:05.274Z,1.80
2022-10-23T09:01:41.482Z,2.20
2022-10-23T09:04:12.903Z,2.30
2022-10-23T09:06:46.616Z,1.90
2022-10-23T09:09:38.283Z,2.42
2022-10-23T09:12:10.106Z,2.00
2022-10-23T09:14:52.388Z,1.65
2022-10-23T09:17:26.900Z,1.98
2022-10-23T09:20:01.182Z,2.00
2022-10-23T09:22:29.789Z,1.53
2022-10-23T09:24:57.600Z,2.40
2022-10-23T09:27:25.495Z,1.85
2022-10-23T09:29:56.057Z,1.65
2022-10-23T09:32:35.872Z,2.03
2022-10-23T09:35:04.162Z,2.05
2022-10-23T09:37:34.285Z,2.10
2022-10-23T09:40:05.204Z,1.90
2022-10-23T09:42:32.950Z,1.75
2022-10-23T09:45:01.749Z,2.00
2022-10-23T09:47:29.830Z,1.40
2022-10-23T09:49:58.931Z,2.30
2022-10-23T09:52:34.347Z,1.63
2022-10-23T09:55:16.543Z,1.35
2022-10-23T09:57:46.212Z,1.90
2022-10-23T10:00:19.267Z,1.60
2022-10-23T10:02:57.343Z,1.50
2022-10-23T10:05:43.855Z,1.93
2022-10-23T10:08:25.620Z,1.70
2022-10-23T10:10:58.294Z,1.60
2022-10-23T10:13:42.231Z,1.60
2022-10-23T10:16:16.916Z,1.80
2022-10-23T10:18:51.751Z,1.90
2022-10-23T10:21:26.148Z,1.90
2022-10-23T10:24:01.447Z,2.08
2022-10-23T10:26:39.439Z,2.10
2022-10-23T10:29:24.073Z,1.83
2022-10-23T10:32:05.889Z,2.17
2022-10-23T10:34:42.281Z,1.80
2022-10-23T10:37:22.439Z,1.98
2022-10-23T10:39:59.889Z,1.58
2022-10-23T10:42:43.353Z,1.83
2022-10-23T10:45:20.369Z,2.22
2022-10-23T10:48:03.174Z,2.50
2022-10-23T10:50:46.431Z,7.35
2022-10-23T10:53:29.255Z,2.65
2022-10-23T10:55:59.237Z,1.52
2022-10-23T10:58:36.744Z,2.05
2022-10-23T11:01:12.391Z,4.07
2022-10-23T11:03:47.021Z,2.42
2022-10-23T11:06:19.570Z,3.10
2022-10-23T11:08:57.705Z,3.20
2022-10-23T11:11:36.971Z,2.00
2022-10-23T11:14:04.923Z,2.33
2022-10-23T11:16:37.151Z,2.00
2022-10-23T11:19:11.462Z,2.20
2022-10-23T11:21:45.931Z,1.83
2022-10-23T11:24:54.591Z,2.42
2022-10-23T11:27:36.222Z,3.28
2022-10-23T11:30:20.197Z,2.63
2022-10-23T11:33:07.426Z,2.20
2022-10-23T11:35:49.975Z,2.10
2022-10-23T11:38:21.177Z,2.10
2022-10-23T11:40:54.646Z,2.60
2022-10-23T11:43:30.664Z,2.35
2022-10-23T11:45:59.268Z,2.72
2022-10-23T11:48:38.245Z,2.35
2022-10-23T11:51:07.101Z,4.05
2022-10-23T11:53:40.943Z,2.25
2022-10-23T11:56:26.777Z,2.00
2022-10-23T11:58:56.571Z,2.22
2022-10-23T12:01:32.020Z,1.90
2022-10-23T12:04:03.165Z,1.77
2022-10-23T12:06:33.999Z,1.90
2022-10-23T12:09:06.003Z,1.80
2022-10-23T12:11:48.208Z,1.63
2022-10-23T12:14:33.989Z,1.73
2022-10-23T12:17:02.519Z,2.10
2022-10-23T12:19:32.020Z,1.58
2022-10-23T12:22:02.485Z,1.60
2022-10-23T12:24:53.178Z,1.65
2022-10-23T12:27:31.370Z,1.70
2022-10-23T12:30:18.458Z,1.85
2022-10-23T12:33:08.037Z,1.80
2022-10-23T12:36:14.589Z,1.40
2022-10-23T12:38:45.831Z,2.10
2022-10-23T12:41:16.190Z,1.70
2022-10-23T12:43:54.305Z,1.42
2022-10-23T12:46:31.964Z,1.80
2022-10-23T12:49:01.040Z,1.88
2022-10-23T12:51:32.151Z,1.90
2022-10-23T12:54:00.395Z,1.70
2022-10-23T12:56:32.963Z,1.73
2022-10-23T12:59:11.604Z,1.77
2022-10-23T13:01:41.606Z,1.80
2022-10-23T13:09:23.985Z,1.90
2022-10-23T13:12:22.297Z,2.30
2022-10-23T13:15:00.981Z,1.90
2022-10-23T13:17:37.820Z,1.90
2022-10-23T13:20:23.738Z,1.88
2022-10-23T13:22:59.493Z,1.90
2022-10-23T13:25:31.197Z,1.73
2022-10-23T13:28:21.999Z,1.90
2022-10-23T13:31:08.392Z,1.80
2022-10-23T13:33:38.538Z,1.70
2022-10-23T13:36:20.633Z,2.03
2022-10-23T13:39:00.358Z,1.80
2022-10-23T13:41:29.692Z,2.00
2022-10-23T13:43:57.418Z,1.95
2022-10-23T13:46:26.944Z,1.77
2022-10-23T13:48:54.840Z,1.98
2022-10-23T13:51:25.273Z,1.73
2022-10-23T13:53:55.372Z,1.80
2022-10-23T13:56:25.346Z,1.67
2022-10-23T13:58:53.215Z,1.80
2022-10-23T14:01:24.374Z,2.00
2022-10-23T14:03:55.621Z,1.85
2022-10-23T14:06:23.781Z,2.63
2022-10-23T14:08:51.725Z,2.10
2022-10-23T14:11:21.120Z,2.05
2022-10-23T14:13:49.644Z,2.00
2022-10-23T14:16:19.719Z,2.03
2022-10-23T14:18:47.873Z,2.03
2022-10-23T14:21:20.869Z,1.95
2022-10-23T14:23:49.321Z,2.03
2022-10-23T14:26:20.533Z,2.25
2022-10-23T14:28:48.534Z,2.00
2022-10-23T14:31:18.777Z,1.92
2022-10-23T14:33:47.520Z,2.30
2022-10-23T14:36:15.392Z,2.13
2022-10-23T14:38:44.928Z,1.98
2022-10-23T14:41:13.890Z,2.00
2022-10-23T14:43:42.983Z,2.03
2022-10-23T14:46:12.796Z,2.17
2022-10-23T14:48:42.446Z,2.10
2022-10-23T14:51:20.994Z,2.28
2022-10-23T14:53:52.180Z,2.40
2022-10-23T14:56:22.133Z,2.08
2022-10-23T14:58:50.165Z,2.55
2022-10-23T15:01:18.312Z,2.22
2022-10-23T15:03:46.485Z,2.17
2022-10-23T15:06:17.603Z,2.33
2022-10-23T15:08:46.487Z,2.25
2022-10-23T15:11:15.589Z,2.08
2022-10-23T15:13:43.479Z,2.30
2022-10-23T15:16:12.678Z,2.55
2022-10-23T15:18:40.594Z,2.25
2022-10-23T15:21:09.824Z,2.30
2022-10-23T15:23:40.080Z,2.10
2022-10-23T15:26:10.143Z,2.00
2022-10-23T15:28:39.703Z,2.45
2022-10-23T15:31:07.537Z,2.30
2022-10-23T15:33:35.305Z,2.00
2022-10-23T15:36:03.190Z,2.67
2022-10-23T15:38:30.993Z,2.55
2022-10-23T15:41:14.274Z,2.25
2022-10-23T15:43:43.618Z,2.20
2022-10-23T15:46:11.695Z,2.53
2022-10-23T15:48:39.613Z,2.30
2022-10-23T15:51:07.329Z,2.40
2022-10-23T15:53:35.062Z,2.20
2022-10-23T15:56:02.773Z,2.72
2022-10-23T15:58:30.492Z,2.75
2022-10-23T16:01:03.063Z,2.28
2022-10-23T16:03:30.831Z,2.85
2022-10-23T16:05:58.533Z,2.63
2022-10-23T16:08:26.361Z,2.60
2022-10-23T16:10:54.058Z,2.67
2022-10-23T16:13:21.835Z,2.38
2022-10-23T16:15:49.697Z,2.55
2022-10-23T16:18:18.752Z,2.50
2022-10-23T16:20:46.435Z,2.47
2022-10-23T16:23:14.192Z,2.60
2022-10-23T16:25:41.921Z,2.70
2022-10-23T16:28:09.850Z,2.50
2022-10-23T16:30:42.193Z,2.50
2022-10-23T16:33:10.721Z,3.63
2022-10-23T16:35:40.414Z,3.60
2022-10-23T16:38:16.105Z,3.50
2022-10-23T16:40:44.370Z,3.90
2022-10-23T16:43:39.997Z,3.70
2022-10-23T16:46:39.453Z,4.25
2022-10-23T16:49:09.389Z,4.22
2022-10-23T16:51:38.537Z,4.40
2022-10-23T16:54:06.298Z,4.85
2022-10-23T16:56:34.041Z,6.28
2022-10-23T16:59:01.829Z,6.32
2022-10-23T17:01:31.404Z,5.63
2022-10-23T17:03:59.416Z,6.20
2022-10-23T17:06:29.323Z,7.05
2022-10-23T17:08:59.117Z,4.43
2022-10-23T17:11:28.846Z,4.47
2022-10-23T17:13:59.372Z,4.82
2022-10-23T17:16:29.463Z,4.28
2022-10-23T17:18:58.131Z,3.78
2022-10-23T17:21:26.236Z,3.80
2022-10-23T17:23:54.037Z,3.97
2022-10-23T17:26:23.541Z,4.50
2022-10-23T17:28:51.567Z,4.00
2022-10-23T17:31:21.952Z,3.67
2022-10-23T17:33:51.687Z,2.95
2022-10-23T17:36:20.896Z,2.38
2022-10-23T17:38:49.231Z,2.85
2022-10-23T17:41:18.776Z,2.35
2022-10-23T17:43:48.310Z,3.25
2022-10-23T17:46:17.396Z,3.20
2022-10-23T17:48:45.374Z,3.00
2022-10-23T17:51:15.066Z,2.90
2022-10-23T17:53:46.013Z,3.20
2022-10-23T17:56:18.843Z,3.40
2022-10-23T17:58:48.084Z,3.20
2022-10-23T18:01:17.553Z,2.80
2022-10-23T18:03:45.657Z,3.55
2022-10-23T18:06:15.923Z,3.67
2022-10-23T18:08:45.027Z,5.32
2022-10-23T18:11:17.228Z,4.35
2022-10-23T18:13:45.319Z,3.42
2022-10-23T18:16:15.312Z,2.80
2022-10-23T18:18:44.776Z,2.60
2022-10-23T18:21:12.584Z,2.70
2022-10-23T18:23:40.312Z,2.20
2022-10-23T18:26:17.670Z,2.63
2022-10-23T18:28:46.156Z,2.15
2022-10-23T18:31:17.414Z,2.90
2022-10-23T18:33:45.482Z,2.80
2022-10-23T18:36:14.748Z,2.47
2022-10-23T18:38:42.855Z,2.80
2022-10-23T18:41:10.648Z,3.17
2022-10-23T18:43:43.712Z,4.10
2022-10-23T18:46:13.095Z,3.85
2022-10-23T18:48:43.340Z,3.72
2022-10-23T18:51:16.523Z,2.97
2022-10-23T18:53:46.939Z,3.60
2022-10-23T18:56:15.486Z,2.60
2022-10-23T18:58:43.326Z,3.15
2022-10-23T19:01:11.178Z,4.35
2022-10-23T19:03:38.947Z,4.00
2022-10-23T19:06:08.706Z,3.50
2022-10-23T19:08:37.763Z,5.72
2022-10-23T19:11:07.297Z,5.97
2022-10-23T19:13:38.969Z,3.45
2022-10-23T19:16:09.637Z,2.90
2022-10-23T19:18:39.188Z,3.03
2022-10-23T19:21:08.735Z,2.60
2022-10-23T19:23:38.084Z,2.72
2022-10-23T19:26:08.801Z,2.97
2022-10-23T19:28:39.555Z,2.63
2022-10-23T19:31:09.840Z,2.88
2022-10-23T19:33:38.774Z,2.55
2022-10-23T19:36:11.340Z,2.65
2022-10-23T19:41:10.647Z,2.30
2022-10-23T19:43:38.707Z,2.47
2022-10-23T19:46:10.952Z,2.50
2022-10-23T19:48:44.077Z,2.67
2022-10-23T19:51:13.941Z,2.88
2022-10-23T19:53:42.886Z,2.53
2022-10-23T19:56:12.573Z,2.83
2022-10-23T19:58:41.045Z,3.28
2022-10-23T20:01:11.955Z,3.13
2022-10-23T20:03:40.704Z,3.20
2022-10-23T20:06:14.666Z,3.30
2022-10-23T20:08:43.094Z,2.83
2022-10-23T20:11:17.971Z,3.58
2022-10-23T20:13:48.095Z,3.10
2022-10-23T20:16:20.083Z,3.40
2022-10-23T20:18:47.923Z,4.15
2022-10-23T20:21:18.119Z,3.10
2022-10-23T20:23:45.969Z,3.58
2022-10-23T20:26:16.534Z,3.40
2022-10-23T20:28:47.056Z,3.70
2022-10-23T20:31:16.432Z,3.30
2022-10-23T20:33:44.936Z,3.28
2022-10-23T20:36:23.730Z,3.65
2022-10-23T20:38:51.694Z,3.25
2022-10-23T20:41:19.885Z,3.65
2022-10-23T20:43:47.778Z,3.05
2022-10-23T20:46:15.553Z,3.20
2022-10-23T20:48:45.077Z,3.40
2022-10-23T20:51:15.257Z,2.90
2022-10-23T20:53:45.441Z,2.90
2022-10-23T20:56:14.778Z,3.65
2022-10-23T20:58:42.955Z,3.35
2022-10-23T21:01:12.723Z,3.17
2022-10-23T21:03:40.833Z,4.50
2022-10-23T21:06:10.364Z,3.47
2022-10-23T21:08:38.833Z,3.58
2022-10-23T21:11:11.300Z,3.30
2022-10-23T21:13:39.297Z,3.47
2022-10-23T21:16:13.529Z,3.67
2022-10-23T21:18:46.064Z,3.22
2022-10-23T21:21:17.008Z,3.53
2022-10-23T21:23:44.891Z,3.20
2022-10-23T21:26:14.483Z,3.40
2022-10-23T21:28:50.872Z,3.13
2022-10-23T21:31:29.355Z,3.58
2022-10-23T21:33:57.268Z,3.35
2022-10-23T21:36:25.662Z,3.10
2022-10-23T21:38:55.451Z,3.25
2022-10-23T21:41:26.445Z,3.90
2022-10-23T21:43:55.410Z,3.65
2022-10-23T21:46:24.955Z,4.10
2022-10-23T21:48:53.210Z,4.65
2022-10-23T21:51:24.176Z,3.47
2022-10-23T21:53:53.120Z,3.83
2022-10-23T21:56:31.410Z,3.05
2022-10-23T21:59:00.656Z,3.38
2022-10-23T22:01:29.603Z,2.88
2022-10-23T22:03:57.864Z,3.50
2022-10-23T22:06:28.023Z,3.85
2022-10-23T22:08:57.962Z,3.85
2022-10-23T22:11:26.240Z,3.10
2022-10-23T22:13:56.018Z,3.58
2022-10-23T22:16:23.854Z,3.60
2022-10-23T22:18:51.588Z,3.78
2022-10-23T22:21:21.894Z,3.95
2022-10-23T22:23:50.172Z,3.80
2022-10-23T22:26:22.484Z,3.45
2022-10-23T22:28:51.256Z,3.28
2022-10-23T22:31:23.316Z,3.55
2022-10-23T22:33:51.800Z,3.40
2022-10-23T22:36:19.697Z,3.60
2022-10-23T22:38:47.983Z,3.60
2022-10-23T22:41:16.273Z,3.17
2022-10-23T22:43:44.115Z,3.25
2022-10-23T22:46:14.215Z,3.28
2022-10-23T22:48:43.979Z,3.70
2022-10-23T22:51:13.057Z,3.40
2022-10-23T22:53:41.186Z,3.38
2022-10-23T22:56:11.325Z,3.30
2022-10-23T22:58:39.520Z,3.50
2022-10-23T23:01:10.072Z,3.28
2022-10-23T23:03:38.374Z,3.45
2022-10-23T23:06:08.788Z,3.13
2022-10-23T23:08:38.205Z,3.30
2022-10-23T23:11:07.569Z,3.80
2022-10-23T23:13:35.872Z,3.22
2022-10-23T23:16:04.360Z,3.85
2022-10-23T23:18:32.587Z,3.28
2022-10-23T23:21:01.852Z,3.97
2022-10-23T23:23:31.775Z,3.00
2022-10-23T23:25:59.723Z,3.17
2022-10-23T23:28:27.450Z,3.03
2022-10-23T23:31:04.118Z,3.20
2022-10-23T23:33:31.844Z,3.53
2022-10-23T23:35:59.626Z,3.28
2022-10-23T23:38:27.653Z,3.28
2022-10-23T23:40:56.771Z,3.13
2022-10-23T23:43:24.485Z,3.25
2022-10-23T23:45:52.249Z,3.22
2022-10-23T23:48:19.978Z,2.90
2022-10-23T23:50:47.647Z,3.17
2022-10-23T23:53:15.349Z,3.05
2022-10-23T23:58:12.975Z,3.00
